createdAt,value
2023-01-26T00:01:29.363Z,52.35
2023-01-26T00:03:57.760Z,46.92
2023-01-26T00:06:26.319Z,48.25
2023-01-26T00:08:55.971Z,46.65
2023-01-26T00:11:26.907Z,52.53
2023-01-26T00:13:58.269Z,57.92
2023-01-26T00:16:26.762Z,46.35
2023-01-26T00:18:55.061Z,44.75
2023-01-26T00:21:24.276Z,46.17
2023-01-26T00:23:53.234Z,46.75
2023-01-26T00:26:23.401Z,45.25
2023-01-26T00:28:51.360Z,46.80
2023-01-26T00:31:23.241Z,46.92
2023-01-26T00:33:51.243Z,47.67
2023-01-26T00:36:19.552Z,48.65
2023-01-26T00:38:48.181Z,45.13
2023-01-26T00:41:31.098Z,42.60
2023-01-26T00:43:58.998Z,43.33
2023-01-26T00:46:28.858Z,45.00
2023-01-26T00:48:56.788Z,41.42
2023-01-26T00:51:24.868Z,43.85
2023-01-26T00:53:52.732Z,45.65
2023-01-26T00:56:20.702Z,44.30
2023-01-26T00:58:48.690Z,43.15
2023-01-26T01:01:16.552Z,45.33
2023-01-26T01:03:45.853Z,42.28
2023-01-26T01:06:14.339Z,51.42
2023-01-26T01:08:42.125Z,42.85
2023-01-26T01:11:12.145Z,44.03
2023-01-26T01:13:40.597Z,45.20
2023-01-26T01:16:09.434Z,48.08
2023-01-26T01:18:37.609Z,43.85
2023-01-26T01:21:08.858Z,43.03
2023-01-26T01:23:36.883Z,42.53
2023-01-26T01:26:06.126Z,41.30
2023-01-26T01:28:35.823Z,40.63
2023-01-26T01:31:05.958Z,41.20
2023-01-26T01:33:33.867Z,40.53
2023-01-26T01:36:03.226Z,43.67
2023-01-26T01:38:32.926Z,42.03
2023-01-26T01:41:00.846Z,42.67
2023-01-26T01:43:29.697Z,40.30
2023-01-26T01:45:58.379Z,40.33
2023-01-26T01:48:30.195Z,40.78
2023-01-26T01:51:00.488Z,39.20
2023-01-26T01:53:30.865Z,36.75
2023-01-26T01:56:02.353Z,37.75
2023-01-26T01:58:31.406Z,38.33
2023-01-26T02:00:59.980Z,38.92
2023-01-26T02:03:28.259Z,37.67
2023-01-26T02:05:59.295Z,36.08
2023-01-26T02:08:32.245Z,34.40
2023-01-26T02:11:07.323Z,34.92
2023-01-26T02:13:36.415Z,36.05
2023-01-26T02:16:05.318Z,35.28
2023-01-26T02:18:33.412Z,34.88
2023-01-26T02:21:03.071Z,33.83
2023-01-26T02:23:39.795Z,31.15
2023-01-26T02:26:12.389Z,32.95
2023-01-26T02:28:40.786Z,31.67
2023-01-26T02:31:09.321Z,32.67
2023-01-26T02:33:37.809Z,32.45
2023-01-26T02:36:08.736Z,31.48
2023-01-26T02:38:41.483Z,31.02
2023-01-26T02:41:13.302Z,32.10
2023-01-26T02:43:41.020Z,33.10
2023-01-26T02:46:09.255Z,32.47
2023-01-26T02:48:58.399Z,30.83
2023-01-26T02:51:26.474Z,32.30
2023-01-26T02:53:54.535Z,31.73
2023-01-26T02:56:22.817Z,31.67
2023-01-26T02:58:52.106Z,30.48
2023-01-26T03:01:20.066Z,29.55
2023-01-26T03:03:48.096Z,30.38
2023-01-26T03:06:16.681Z,28.02
2023-01-26T03:08:44.719Z,29.80
2023-01-26T03:11:12.740Z,28.17
2023-01-26T03:13:42.411Z,31.38
2023-01-26T03:16:12.030Z,29.40
2023-01-26T03:18:57.724Z,30.10
2023-01-26T03:21:43.345Z,29.83
2023-01-26T03:24:32.293Z,28.45
2023-01-26T03:27:19.826Z,29.63
2023-01-26T03:29:49.328Z,28.33
2023-01-26T03:32:17.521Z,28.85
2023-01-26T03:34:45.548Z,27.73
2023-01-26T03:37:13.593Z,27.42
2023-01-26T03:40:09.097Z,28.17
2023-01-26T03:42:55.486Z,27.27
2023-01-26T03:45:42.127Z,27.08
2023-01-26T03:48:30.970Z,25.35
2023-01-26T03:51:17.886Z,25.35
2023-01-26T03:54:03.493Z,27.17
2023-01-26T03:56:33.479Z,26.35
2023-01-26T03:59:09.190Z,27.30
2023-01-26T04:01:42.509Z,25.45
2023-01-26T04:04:29.741Z,24.40
2023-01-26T04:07:15.358Z,25.48
2023-01-26T04:09:48.755Z,25.20
2023-01-26T04:12:16.712Z,24.08
2023-01-26T04:18:15.835Z,22.85
2023-01-26T04:21:01.508Z,24.60
2023-01-26T04:23:29.721Z,24.38
2023-01-26T04:25:57.721Z,25.73
2023-01-26T04:28:25.746Z,24.23
2023-01-26T04:30:53.782Z,24.67
2023-01-26T04:33:23.193Z,23.92
2023-01-26T04:35:51.086Z,24.70
2023-01-26T04:38:19.181Z,24.75
2023-01-26T04:40:54.286Z,25.45
2023-01-26T04:43:22.640Z,24.83
2023-01-26T04:45:59.549Z,24.33
2023-01-26T04:48:29.358Z,25.40
2023-01-26T04:50:57.710Z,23.70
2023-01-26T04:53:26.423Z,24.42
2023-01-26T04:55:54.620Z,25.35
2023-01-26T04:58:22.622Z,23.83
2023-01-26T05:00:54.334Z,23.90
2023-01-26T05:03:22.513Z,25.15
2023-01-26T05:05:53.862Z,25.95
2023-01-26T05:08:24.827Z,24.00
2023-01-26T05:10:52.668Z,25.00
2023-01-26T05:13:24.426Z,23.63
2023-01-26T05:16:13.958Z,22.98
2023-01-26T05:19:07.798Z,23.15
2023-01-26T05:21:44.335Z,23.08
2023-01-26T05:24:13.769Z,22.27
2023-01-26T05:27:15.992Z,21.08
2023-01-26T05:29:43.968Z,22.52
2023-01-26T05:32:12.354Z,21.75
2023-01-26T05:34:40.271Z,21.08
2023-01-26T05:37:09.533Z,21.60
2023-01-26T05:39:39.979Z,21.55
2023-01-26T05:42:08.748Z,20.95
2023-01-26T05:44:56.772Z,20.90
2023-01-26T05:47:25.182Z,21.95
2023-01-26T05:49:53.348Z,20.15
2023-01-26T05:52:29.825Z,22.75
2023-01-26T05:54:57.807Z,22.05
2023-01-26T05:57:26.154Z,19.92
2023-01-26T05:59:58.666Z,20.63
2023-01-26T06:02:27.669Z,22.70
2023-01-26T06:04:56.252Z,21.55
2023-01-26T06:07:24.409Z,22.30
2023-01-26T06:10:09.106Z,22.52
2023-01-26T06:12:59.398Z,22.38
2023-01-26T06:15:51.530Z,23.23
2023-01-26T06:18:26.640Z,22.35
2023-01-26T06:21:00.297Z,23.33
2023-01-26T06:23:28.659Z,21.55
2023-01-26T06:26:01.278Z,24.00
2023-01-26T06:28:31.784Z,22.50
2023-01-26T06:31:03.237Z,22.92
2023-01-26T06:33:34.563Z,24.77
2023-01-26T06:36:03.119Z,25.27
2023-01-26T06:38:31.204Z,23.45
2023-01-26T06:41:03.224Z,23.05
2023-01-26T06:43:32.287Z,24.23
2023-01-26T06:46:01.438Z,23.67
2023-01-26T06:48:30.909Z,24.50
2023-01-26T06:50:59.118Z,25.83
2023-01-26T06:53:31.252Z,24.00
2023-01-26T06:56:19.595Z,24.13
2023-01-26T06:58:58.415Z,24.58
2023-01-26T07:01:47.285Z,21.08
2023-01-26T07:04:15.163Z,22.95
2023-01-26T07:06:43.753Z,23.00
2023-01-26T07:09:11.888Z,23.20
2023-01-26T07:11:41.017Z,24.15
2023-01-26T07:14:09.039Z,23.88
2023-01-26T07:16:36.772Z,25.90
2023-01-26T07:19:04.831Z,29.02
2023-01-26T07:21:32.731Z,30.50
2023-01-26T07:24:00.523Z,29.50
2023-01-26T07:26:28.580Z,32.65
2023-01-26T07:28:57.716Z,32.97
2023-01-26T07:31:25.666Z,35.97
2023-01-26T07:33:53.563Z,39.10
2023-01-26T07:36:21.894Z,42.88
2023-01-26T07:38:49.634Z,42.90
2023-01-26T07:41:17.530Z,43.33
2023-01-26T07:43:45.437Z,39.85
2023-01-26T07:46:14.624Z,39.00
2023-01-26T07:48:42.472Z,36.53
2023-01-26T07:51:11.337Z,34.70
2023-01-26T07:53:41.303Z,32.47
2023-01-26T07:56:10.806Z,31.08
2023-01-26T07:58:38.659Z,30.15
2023-01-26T08:01:08.390Z,31.25
2023-01-26T08:03:37.894Z,30.05
2023-01-26T08:06:07.959Z,28.75
2023-01-26T08:08:37.739Z,27.73
2023-01-26T08:11:05.826Z,29.58
2023-01-26T08:13:36.047Z,28.20
2023-01-26T08:16:05.154Z,29.17
2023-01-26T08:18:33.285Z,29.08
2023-01-26T08:21:02.394Z,29.85
2023-01-26T08:23:30.434Z,30.88
2023-01-26T08:26:02.378Z,29.90
2023-01-26T08:28:30.198Z,29.60
2023-01-26T08:30:58.130Z,29.52
2023-01-26T08:33:26.007Z,29.75
2023-01-26T08:35:53.790Z,28.75
2023-01-26T08:38:22.883Z,32.15
2023-01-26T08:40:53.709Z,30.48
2023-01-26T08:43:21.482Z,30.77
2023-01-26T08:45:49.408Z,30.92
2023-01-26T08:48:17.171Z,29.13
2023-01-26T08:50:45.177Z,29.63
2023-01-26T08:53:13.118Z,29.73
2023-01-26T08:55:42.183Z,31.02
2023-01-26T08:58:10.035Z,32.10
2023-01-26T09:00:38.014Z,32.42
2023-01-26T09:03:07.136Z,31.98
2023-01-26T09:05:37.495Z,32.28
2023-01-26T09:08:06.268Z,31.52
2023-01-26T09:10:34.579Z,33.05
2023-01-26T09:13:04.075Z,32.28
2023-01-26T09:15:31.990Z,33.20
2023-01-26T09:18:01.006Z,32.15
2023-01-26T09:20:29.397Z,31.73
2023-01-26T09:22:57.148Z,32.55
2023-01-26T09:25:24.967Z,30.80
2023-01-26T09:27:52.977Z,32.80
2023-01-26T09:30:22.578Z,32.17
2023-01-26T09:32:50.781Z,34.55
2023-01-26T09:35:19.514Z,32.08
2023-01-26T09:37:47.345Z,34.50
2023-01-26T09:40:19.174Z,33.83
2023-01-26T09:43:00.447Z,33.75
2023-01-26T09:45:33.911Z,33.03
2023-01-26T09:48:16.283Z,32.25
2023-01-26T09:50:49.777Z,31.83
2023-01-26T09:53:20.353Z,32.35
2023-01-26T09:55:49.578Z,31.83
2023-01-26T09:58:21.269Z,33.50
2023-01-26T10:00:53.170Z,30.85
2023-01-26T10:03:27.256Z,34.22
2023-01-26T10:06:00.098Z,30.60
2023-01-26T10:08:50.276Z,31.88
2023-01-26T10:11:21.279Z,31.88
2023-01-26T10:13:52.798Z,33.00
2023-01-26T10:16:24.971Z,31.35
2023-01-26T10:18:56.016Z,29.27
2023-01-26T10:21:29.817Z,29.95
2023-01-26T10:24:00.634Z,30.48
2023-01-26T10:26:31.539Z,31.08
2023-01-26T10:28:59.733Z,26.30
2023-01-26T10:31:31.003Z,27.95
2023-01-26T10:34:00.538Z,24.33
2023-01-26T10:36:30.663Z,24.90
2023-01-26T10:39:05.734Z,25.95
2023-01-26T10:41:33.974Z,21.33
2023-01-26T10:44:04.911Z,23.40
2023-01-26T10:46:35.758Z,23.25
2023-01-26T10:49:05.504Z,23.02
2023-01-26T10:51:34.667Z,22.17
2023-01-26T10:54:16.910Z,21.33
2023-01-26T10:56:46.124Z,20.10
2023-01-26T10:59:18.767Z,19.23
2023-01-26T11:01:55.702Z,16.92
2023-01-26T11:04:24.408Z,16.88
2023-01-26T11:06:52.434Z,16.77
2023-01-26T11:09:22.659Z,16.35
2023-01-26T11:11:59.013Z,14.90
2023-01-26T11:14:27.616Z,14.93
2023-01-26T11:17:00.984Z,14.43
2023-01-26T11:20:04.476Z,11.82
2023-01-26T11:22:35.174Z,12.80
2023-01-26T11:25:12.994Z,10.48
2023-01-26T11:27:47.524Z,9.95
2023-01-26T11:30:43.586Z,10.18
2023-01-26T11:33:19.419Z,9.48
2023-01-26T11:35:53.616Z,6.80
2023-01-26T11:38:32.062Z,7.63
2023-01-26T11:41:13.813Z,6.22
2023-01-26T11:43:57.256Z,6.20
2023-01-26T11:46:34.637Z,6.23
2023-01-26T11:49:19.458Z,5.45
2023-01-26T11:52:00.793Z,5.25
2023-01-26T11:54:58.187Z,6.03
2023-01-26T11:57:30.029Z,5.45
2023-01-26T12:00:01.215Z,4.97
2023-01-26T12:02:32.178Z,4.40
2023-01-26T12:05:05.977Z,4.70
2023-01-26T12:07:51.316Z,4.25
2023-01-26T12:10:22.454Z,4.53
2023-01-26T12:12:54.781Z,4.15
2023-01-26T12:15:27.690Z,4.90
2023-01-26T12:18:00.388Z,4.40
2023-01-26T12:20:36.762Z,5.85
2023-01-26T12:23:06.761Z,4.00
2023-01-26T12:25:36.854Z,5.15
2023-01-26T12:28:13.896Z,4.07
2023-01-26T12:30:45.157Z,4.75
2023-01-26T12:33:13.285Z,4.05
2023-01-26T12:36:07.730Z,3.97
2023-01-26T12:38:44.720Z,4.55
2023-01-26T12:41:17.523Z,3.80
2023-01-26T12:43:57.900Z,4.63
2023-01-26T12:46:26.433Z,4.25
2023-01-26T12:49:02.758Z,4.53
2023-01-26T12:51:35.122Z,3.60
2023-01-26T12:54:06.912Z,4.65
2023-01-26T12:56:37.328Z,4.13
2023-01-26T12:59:10.392Z,4.25
2023-01-26T13:01:41.294Z,3.85
2023-01-26T13:04:11.016Z,4.95
2023-01-26T13:06:40.624Z,4.43
2023-01-26T13:09:23.407Z,4.10
2023-01-26T13:11:53.802Z,3.60
2023-01-26T13:14:33.639Z,3.60
2023-01-26T13:17:34.008Z,3.03
2023-01-26T13:20:17.379Z,3.00
2023-01-26T13:22:47.664Z,3.13
2023-01-26T13:25:19.523Z,3.15
2023-01-26T13:27:50.091Z,2.95
2023-01-26T13:30:46.271Z,2.70
2023-01-26T13:33:21.460Z,2.95
2023-01-26T13:35:49.898Z,2.97
2023-01-26T13:38:29.156Z,2.60
2023-01-26T13:40:59.306Z,2.70
2023-01-26T13:43:35.267Z,3.20
2023-01-26T13:46:15.992Z,3.33
2023-01-26T13:48:46.493Z,3.42
2023-01-26T13:51:17.072Z,2.67
2023-01-26T13:53:54.634Z,2.50
2023-01-26T13:56:28.772Z,3.80
2023-01-26T14:01:32.341Z,2.97
2023-01-26T14:04:05.123Z,2.65
2023-01-26T14:06:33.264Z,3.17
2023-01-26T14:09:04.526Z,2.85
2023-01-26T14:11:34.319Z,3.33
2023-01-26T14:14:02.770Z,3.08
2023-01-26T14:16:32.786Z,3.20
2023-01-26T14:19:12.011Z,2.80
2023-01-26T14:21:47.777Z,2.80
2023-01-26T14:24:17.520Z,2.83
2023-01-26T14:26:45.363Z,3.00
2023-01-26T14:29:20.660Z,2.58
2023-01-26T14:31:49.314Z,2.53
2023-01-26T14:34:21.216Z,3.50
2023-01-26T14:36:49.608Z,3.20
2023-01-26T14:39:21.165Z,4.00
2023-01-26T14:41:50.126Z,3.10
2023-01-26T14:44:18.622Z,2.90
2023-01-26T14:46:55.392Z,2.75
2023-01-26T14:49:26.394Z,2.63
2023-01-26T14:51:57.020Z,4.90
2023-01-26T14:54:30.438Z,2.97
2023-01-26T14:56:59.286Z,2.85
2023-01-26T14:59:31.986Z,3.13
2023-01-26T15:02:16.028Z,3.13
2023-01-26T15:04:48.583Z,2.72
2023-01-26T15:07:24.509Z,3.38
2023-01-26T15:09:56.654Z,3.13
2023-01-26T15:12:24.608Z,3.22
2023-01-26T15:14:55.682Z,2.80
2023-01-26T15:17:31.406Z,2.50
2023-01-26T15:19:59.225Z,3.15
2023-01-26T15:22:27.591Z,2.47
2023-01-26T15:25:06.446Z,2.78
2023-01-26T15:27:36.144Z,2.08
2023-01-26T15:30:06.627Z,2.53
2023-01-26T15:32:39.855Z,2.55
2023-01-26T15:35:21.523Z,3.03
2023-01-26T15:37:49.886Z,2.67
2023-01-26T15:40:19.311Z,2.28
2023-01-26T15:42:47.164Z,2.53
2023-01-26T15:45:24.659Z,2.67
2023-01-26T15:47:52.458Z,2.60
2023-01-26T15:50:27.778Z,2.75
2023-01-26T15:52:55.911Z,2.60
2023-01-26T15:55:27.283Z,2.58
2023-01-26T15:57:55.184Z,2.92
2023-01-26T16:00:23.537Z,3.83
2023-01-26T16:02:51.623Z,2.53
2023-01-26T16:05:30.553Z,2.90
2023-01-26T16:07:58.488Z,3.13
2023-01-26T16:10:27.655Z,2.83
2023-01-26T16:12:55.835Z,2.85
2023-01-26T16:15:29.835Z,4.93
2023-01-26T16:20:28.014Z,2.55
2023-01-26T16:22:56.213Z,2.85
2023-01-26T16:25:27.392Z,2.80
2023-01-26T16:27:55.678Z,2.60
2023-01-26T16:30:23.716Z,2.88
2023-01-26T16:32:52.135Z,2.72
2023-01-26T16:35:21.759Z,2.58
2023-01-26T16:37:49.654Z,2.70
2023-01-26T16:40:19.044Z,2.83
2023-01-26T16:42:50.682Z,2.55
2023-01-26T16:45:20.918Z,2.33
2023-01-26T16:47:50.539Z,2.30
2023-01-26T16:50:18.596Z,3.90
2023-01-26T16:52:47.047Z,6.05
2023-01-26T16:55:16.482Z,2.90
2023-01-26T16:57:46.375Z,2.28
2023-01-26T17:00:19.146Z,3.50
2023-01-26T17:02:49.697Z,2.45
2023-01-26T17:05:18.972Z,2.50
2023-01-26T17:07:51.077Z,2.20
2023-01-26T17:10:22.512Z,2.08
2023-01-26T17:12:50.467Z,2.63
2023-01-26T17:15:19.792Z,2.15
2023-01-26T17:17:49.959Z,4.55
2023-01-26T17:20:19.792Z,5.07
2023-01-26T17:22:48.548Z,3.95
2023-01-26T17:25:17.675Z,3.10
2023-01-26T17:27:46.658Z,2.42
2023-01-26T17:30:15.180Z,2.30
2023-01-26T17:32:44.596Z,2.40
2023-01-26T17:35:13.057Z,2.50
2023-01-26T17:37:43.496Z,2.40
2023-01-26T17:40:12.333Z,3.22
2023-01-26T17:42:40.133Z,2.33
2023-01-26T17:45:10.530Z,3.30
2023-01-26T17:47:41.527Z,3.28
2023-01-26T17:50:12.096Z,2.55
2023-01-26T17:52:40.029Z,2.92
2023-01-26T17:55:08.004Z,2.75
2023-01-26T17:57:36.013Z,2.97
2023-01-26T18:00:05.376Z,3.05
2023-01-26T18:02:38.108Z,3.83
2023-01-26T18:05:07.058Z,3.00
2023-01-26T18:07:36.388Z,2.40
2023-01-26T18:10:05.084Z,3.00
2023-01-26T18:12:33.236Z,2.80
2023-01-26T18:15:01.091Z,3.88
2023-01-26T18:17:28.873Z,3.22
2023-01-26T18:19:56.703Z,2.83
2023-01-26T18:22:24.723Z,3.40
2023-01-26T18:24:54.284Z,3.63
2023-01-26T18:27:22.341Z,3.25
2023-01-26T18:29:50.241Z,3.40
2023-01-26T18:32:19.880Z,3.83
2023-01-26T18:34:47.922Z,3.20
2023-01-26T18:37:15.793Z,5.18
2023-01-26T18:39:43.821Z,4.20
2023-01-26T18:42:13.122Z,3.92
2023-01-26T18:44:41.005Z,4.00
2023-01-26T18:47:08.984Z,3.53
2023-01-26T18:49:36.792Z,4.00
2023-01-26T18:52:05.253Z,4.07
2023-01-26T18:54:33.508Z,3.88
2023-01-26T18:57:01.375Z,4.18
2023-01-26T18:59:32.377Z,3.92
2023-01-26T19:02:03.567Z,4.22
2023-01-26T19:04:31.958Z,3.47
2023-01-26T19:06:59.697Z,4.78
2023-01-26T19:09:34.737Z,3.60
2023-01-26T19:12:06.614Z,3.67
2023-01-26T19:14:44.279Z,3.50
2023-01-26T19:17:13.718Z,3.70
2023-01-26T19:19:42.614Z,3.80
2023-01-26T19:22:15.327Z,4.05
2023-01-26T19:24:46.622Z,4.00
2023-01-26T19:27:14.915Z,4.40
2023-01-26T19:29:44.150Z,3.40
2023-01-26T19:32:12.182Z,4.28
2023-01-26T19:34:40.006Z,3.60
2023-01-26T19:37:07.954Z,3.80
2023-01-26T19:39:36.480Z,3.42
2023-01-26T19:42:04.550Z,3.47
2023-01-26T19:44:32.400Z,4.03
2023-01-26T19:47:01.679Z,4.15
2023-01-26T19:49:30.603Z,4.30
2023-01-26T19:51:58.451Z,4.47
2023-01-26T19:54:26.323Z,3.50
2023-01-26T19:56:54.126Z,3.80
2023-01-26T19:59:22.866Z,3.55
2023-01-26T20:01:50.641Z,4.65
2023-01-26T20:04:20.006Z,5.00
2023-01-26T20:06:49.777Z,4.82
2023-01-26T20:09:17.636Z,3.92
2023-01-26T20:11:45.740Z,3.58
2023-01-26T20:14:13.866Z,4.97
2023-01-26T20:16:48.406Z,3.80
2023-01-26T20:19:16.363Z,4.20
2023-01-26T20:21:45.583Z,3.75
2023-01-26T20:24:14.157Z,3.80
2023-01-26T20:26:43.432Z,3.60
2023-01-26T20:29:13.608Z,3.53
2023-01-26T20:31:42.129Z,3.42
2023-01-26T20:34:10.630Z,4.10
2023-01-26T20:36:40.502Z,3.55
2023-01-26T20:39:16.464Z,3.85
2023-01-26T20:41:44.559Z,4.28
2023-01-26T20:44:12.389Z,4.43
2023-01-26T20:46:42.485Z,5.15
2023-01-26T20:49:14.884Z,4.68
2023-01-26T20:51:45.408Z,3.85
2023-01-26T20:54:16.047Z,4.60
2023-01-26T20:56:45.725Z,3.50
2023-01-26T20:59:13.719Z,3.80
2023-01-26T21:01:41.786Z,3.95
2023-01-26T21:04:09.807Z,4.22
2023-01-26T21:06:39.072Z,3.67
2023-01-26T21:09:07.146Z,3.90
2023-01-26T21:11:36.724Z,3.95
2023-01-26T21:14:04.875Z,4.10
2023-01-26T21:16:35.711Z,4.13
2023-01-26T21:19:03.858Z,3.92
2023-01-26T21:21:31.799Z,3.97
2023-01-26T21:23:59.871Z,3.13
2023-01-26T21:26:28.765Z,3.85
2023-01-26T21:29:01.263Z,2.90
2023-01-26T21:31:32.965Z,3.70
2023-01-26T21:34:01.858Z,3.75
2023-01-26T21:39:52.041Z,4.00
2023-01-26T21:42:20.059Z,3.85
2023-01-26T21:45:08.444Z,4.07
2023-01-26T21:47:36.411Z,3.95
2023-01-26T21:50:04.637Z,3.88
2023-01-26T21:52:50.442Z,4.63
2023-01-26T21:55:18.263Z,5.68
2023-01-26T21:58:15.086Z,3.72
2023-01-26T22:00:48.613Z,5.13
2023-01-26T22:03:16.673Z,5.35
2023-01-26T22:05:52.874Z,3.95
2023-01-26T22:08:20.754Z,3.95
2023-01-26T22:10:54.535Z,2.97
2023-01-26T22:13:22.526Z,3.70
2023-01-26T22:15:51.851Z,3.75
2023-01-26T22:18:20.109Z,3.80
2023-01-26T22:20:47.900Z,3.45
2023-01-26T22:23:16.008Z,3.45
2023-01-26T22:25:43.746Z,2.90
2023-01-26T22:28:11.454Z,3.55
2023-01-26T22:30:39.451Z,3.88
2023-01-26T22:33:08.550Z,3.67
2023-01-26T22:35:36.465Z,4.00
2023-01-26T22:38:04.342Z,3.45
2023-01-26T22:40:32.339Z,3.22
2023-01-26T22:43:00.236Z,3.50
2023-01-26T22:45:28.207Z,4.22
2023-01-26T22:47:56.045Z,3.30
2023-01-26T22:50:25.362Z,3.30
2023-01-26T22:52:53.119Z,3.60
2023-01-26T22:55:21.078Z,3.35
2023-01-26T22:57:48.920Z,3.47
2023-01-26T23:00:17.404Z,3.47
2023-01-26T23:02:45.156Z,3.40
2023-01-26T23:05:13.066Z,3.50
2023-01-26T23:07:42.232Z,3.90
2023-01-26T23:10:11.275Z,2.90
2023-01-26T23:12:39.341Z,2.55
2023-01-26T23:15:08.182Z,3.42
2023-01-26T23:17:36.010Z,3.42
2023-01-26T23:20:03.873Z,4.47
2023-01-26T23:22:31.678Z,3.35
2023-01-26T23:25:18.255Z,3.22
2023-01-26T23:27:46.330Z,3.90
2023-01-26T23:30:14.947Z,3.45
2023-01-26T23:32:42.931Z,3.33
2023-01-26T23:35:10.884Z,3.58
2023-01-26T23:37:38.749Z,4.20
2023-01-26T23:40:09.596Z,4.00
2023-01-26T23:42:54.323Z,3.97
2023-01-26T23:45:25.442Z,4.00
2023-01-26T23:47:53.459Z,4.68
2023-01-26T23:50:21.380Z,4.18
2023-01-26T23:52:49.348Z,3.92
2023-01-26T23:55:19.073Z,4.22
2023-01-26T23:57:46.901Z,3.67
